Terminal Aerodrome Forecast
Issued by NWS Memphis, TN

Home | Current Version | Previous Version | Text Only | Print | Product List | Glossary On
Versions: 1 2 3 4 5 6 7 8 9 10 11 12 13 14 15
396
FTUS44 KMEG 081730
TAFJBR
TAF
KJBR 081730Z 0818/0918 31020G30KT P6SM OVC050
     FM082200 30015G25KT P6SM OVC035
     FM090600 28012G18KT P6SM OVC035
     FM091100 30015G25KT P6SM OVC050=

USA.gov is the U.S. government's official web portal to all federal, state and local government web resources and services.